»·PEaware :: NGF720 0O2-1L1

NGF720 :: 0O2-1L1

FLIGHT INFORMATION

Flight Status: Arrived
Operator: Unknown
More flights by this operator :: More flights under this callsign
Pilot: Shawn N. (11060)
Aircraft: BEECH AIRCRAFT SUPER KING AIR COMMUTER
(BE20)
More flights by this aircraft type
Origin: 0O2 Baker
United States
Destination: 1L1 Lincoln Co
United States
More flights between these airports :: More routes between these airports
Route: CLARR LAS MMM HUNKU
File this flight plan on PilotEdge
Remarks:
Altitude:
(Current/Filed)
25,000ft
Speed:
(Current/Filed)
260kts
Departed: 06-Apr-18 07:58 AM
Arrived: 06-Apr-18 08:50 AM
Distance/Time
Traveled:
170nm/0:52
Distance/Time
To Go:
Arrived

Flight Plot

Page will automatically refresh every two minutes.

Flight plan parsing failed; only flown route is shown


Map Options




Map Legend


Flown Route
Filed Route
Departure Airport
Arrival Airport
Navaid (VOR, NDB)
Fix

Horizontal Profiles

Position Reports

Time Latitude Longitude Heading Altitude Ground
Speed
06-Apr-18 07:52 35.287515 -116.081062 254 923ft 0kts
06-Apr-18 07:53 35.287515 -116.081062 254 923ft 0kts
06-Apr-18 07:54 35.287515 -116.081062 254 923ft 0kts
06-Apr-18 07:55 35.287505 -116.081105 255 923ft 1kts
06-Apr-18 07:56 35.286182 -116.081324 165 922ft 14kts
06-Apr-18 07:57 35.284595 -116.080842 346 923ft 75kts
06-Apr-18 07:58 35.320123 -116.096303 16 3087ft 156kts
06-Apr-18 07:59 35.337631 -116.059515 68 4974ft 176kts
06-Apr-18 08:00 35.360449 -116.008376 43 6356ft 151kts
06-Apr-18 08:01 35.392648 -115.972571 36 8385ft 177kts
06-Apr-18 08:02 35.432248 -115.931682 35 10423ft 192kts
06-Apr-18 08:03 35.473799 -115.888536 33 12565ft 200kts
06-Apr-18 08:04 35.516839 -115.844152 32 14388ft 208kts
06-Apr-18 08:05 35.561642 -115.797889 31 16465ft 216kts
06-Apr-18 08:06 35.608326 -115.749658 29 18285ft 224kts
06-Apr-18 08:07 35.656585 -115.699726 29 19900ft 229kts
06-Apr-18 08:08 35.703561 -115.644543 35 21270ft 238kts
06-Apr-18 08:09 35.749816 -115.585474 34 22456ft 242kts
06-Apr-18 08:10 35.796168 -115.526092 34 23699ft 239kts
06-Apr-18 08:11 35.841125 -115.468490 32 24926ft 238kts
06-Apr-18 08:12 35.890772 -115.405153 34 24942ft 270kts
06-Apr-18 08:13 35.943606 -115.336989 35 24931ft 280kts
06-Apr-18 08:14 35.997166 -115.267841 35 24902ft 282kts
06-Apr-18 08:15 36.051558 -115.197507 35 24929ft 281kts
06-Apr-18 08:16 36.105780 -115.128173 35 24906ft 280kts
06-Apr-18 08:17 36.159296 -115.060589 35 24903ft 282kts
06-Apr-18 08:18 36.214214 -114.991074 34 24901ft 282kts
06-Apr-18 08:19 36.269070 -114.921528 35 24902ft 285kts
06-Apr-18 08:20 36.324663 -114.850871 35 24902ft 288kts
06-Apr-18 08:21 36.380583 -114.779612 35 24904ft 289kts
06-Apr-18 08:22 36.436685 -114.707971 35 24902ft 289kts
06-Apr-18 08:23 36.492685 -114.636327 35 24902ft 289kts
06-Apr-18 08:24 36.548975 -114.564295 35 24376ft 297kts
06-Apr-18 08:25 36.604589 -114.492793 36 22794ft 283kts
06-Apr-18 08:26 36.658821 -114.422973 36 21222ft 281kts
06-Apr-18 08:27 36.713001 -114.353049 37 19652ft 281kts
06-Apr-18 08:28 36.766458 -114.283870 37 18055ft 280kts
06-Apr-18 08:29 36.827383 -114.234484 23 16992ft 241kts
06-Apr-18 08:30 36.886010 -114.189371 24 17003ft 266kts
06-Apr-18 08:31 36.951339 -114.138603 24 16477ft 282kts
06-Apr-18 08:32 37.017811 -114.086811 25 15467ft 283kts
06-Apr-18 08:33 37.084282 -114.034938 25 14457ft 283kts
06-Apr-18 08:34 37.148413 -113.984655 25 14640ft 259kts
06-Apr-18 08:35 37.209531 -113.936940 25 15003ft 273kts
06-Apr-18 08:36 37.274696 -113.885783 25 15001ft 280kts
06-Apr-18 08:37 37.340945 -113.833827 22 14998ft 280kts
06-Apr-18 08:38 37.399293 -113.867516 310 15001ft 246kts
06-Apr-18 08:39 37.445224 -113.931170 309 14793ft 253kts
06-Apr-18 08:40 37.493394 -113.997978 309 13599ft 256kts
06-Apr-18 08:41 37.538703 -114.062800 308 12385ft 236kts
06-Apr-18 08:42 37.581107 -114.123925 308 11056ft 229kts
06-Apr-18 08:43 37.622174 -114.183171 307 10000ft 214kts
06-Apr-18 08:44 37.659626 -114.237304 307 9873ft 203kts
06-Apr-18 08:45 37.697182 -114.292861 301 8632ft 211kts
06-Apr-18 08:46 37.725122 -114.357908 289 7115ft 206kts
06-Apr-18 08:47 37.746987 -114.414261 310 5757ft 153kts
06-Apr-18 08:48 37.782853 -114.421010 0 4806ft 116kts
06-Apr-18 08:49 37.793811 -114.420873 272 4850ft 4kts
06-Apr-18 08:50 37.793822 -114.421062 262 4851ft 4kts
06-Apr-18 08:51 37.793730 -114.421018 28 4850ft 0kts
06-Apr-18 08:52 37.793730 -114.421018 28 4850ft 0kts
06-Apr-18 08:53 37.793730 -114.421018 28 4850ft 0kts
06-Apr-18 08:54 37.793730 -114.421018 28 4850ft 0kts

Navigation Log

Ident Type
Flight plan parsing failed, navigation log unavailable